createdAt,value
2024-03-10T00:00:18.670Z,18.00
2024-03-10T00:02:46.453Z,21.60
2024-03-10T00:05:15.276Z,19.67
2024-03-10T00:07:47.780Z,20.20
2024-03-10T00:10:19.433Z,19.93
2024-03-10T00:12:51.227Z,20.57
2024-03-10T00:15:22.327Z,19.53
2024-03-10T00:17:50.227Z,22.33
2024-03-10T00:20:21.185Z,22.13
2024-03-10T00:22:51.774Z,19.93
2024-03-10T00:25:20.029Z,21.00
2024-03-10T00:27:47.206Z,20.87
2024-03-10T00:30:14.517Z,16.23
2024-03-10T00:32:43.336Z,20.60
2024-03-10T00:35:12.065Z,22.20
2024-03-10T00:37:40.486Z,13.40
2024-03-10T00:40:09.474Z,21.30
2024-03-10T00:42:37.060Z,22.10
2024-03-10T00:45:04.862Z,21.13
2024-03-10T00:47:32.097Z,22.00
2024-03-10T00:49:59.548Z,21.70
2024-03-10T00:52:26.757Z,19.33
2024-03-10T00:54:53.833Z,22.30
2024-03-10T00:57:21.489Z,21.20
2024-03-10T00:59:48.685Z,23.23
2024-03-10T01:02:15.872Z,20.57
2024-03-10T01:04:43.058Z,20.40
2024-03-10T01:07:10.311Z,19.53
2024-03-10T01:09:37.485Z,20.03
2024-03-10T01:12:04.829Z,21.33
2024-03-10T01:14:32.351Z,20.50
2024-03-10T01:17:05.599Z,21.47
2024-03-10T01:19:32.983Z,20.30
2024-03-10T01:22:00.244Z,21.33
2024-03-10T01:24:27.582Z,17.20
2024-03-10T01:26:54.736Z,20.50
2024-03-10T01:29:23.993Z,22.47
2024-03-10T01:31:51.455Z,20.90
2024-03-10T01:34:20.800Z,21.43
2024-03-10T01:36:48.183Z,21.37
2024-03-10T01:39:15.321Z,23.70
2024-03-10T01:41:42.524Z,21.57
2024-03-10T01:44:09.809Z,19.40
2024-03-10T01:46:38.906Z,21.87
2024-03-10T01:49:09.177Z,20.40
2024-03-10T01:51:39.868Z,15.03
2024-03-10T01:54:09.950Z,17.70
2024-03-10T01:56:38.020Z,21.00
2024-03-10T01:59:07.431Z,21.37
2024-03-10T02:01:37.219Z,17.67
2024-03-10T02:04:04.905Z,17.90
2024-03-10T02:06:32.122Z,20.83
2024-03-10T02:08:59.116Z,21.90
2024-03-10T02:11:26.486Z,22.07
2024-03-10T02:13:54.008Z,20.10
2024-03-10T02:16:21.189Z,17.10
2024-03-10T02:18:48.474Z,20.60
2024-03-10T02:21:19.427Z,16.63
2024-03-10T02:23:51.034Z,17.27
2024-03-10T02:26:18.181Z,16.10
2024-03-10T02:28:59.277Z,20.90
2024-03-10T02:31:47.921Z,21.70
2024-03-10T02:34:33.376Z,21.07
2024-03-10T02:37:19.258Z,20.63
2024-03-10T02:40:04.920Z,18.77
2024-03-10T02:42:50.744Z,20.73
2024-03-10T02:45:36.311Z,11.23
2024-03-10T02:48:04.321Z,15.23
2024-03-10T02:50:31.564Z,19.67
2024-03-10T02:52:58.769Z,15.93
2024-03-10T02:55:25.860Z,13.37
2024-03-10T02:57:52.984Z,16.90
2024-03-10T03:00:20.260Z,17.67
2024-03-10T03:02:47.346Z,17.80
2024-03-10T03:05:19.222Z,18.07
2024-03-10T03:07:46.467Z,15.60
2024-03-10T03:10:13.570Z,17.57
2024-03-10T03:12:40.934Z,15.40
2024-03-10T03:15:10.870Z,13.40
2024-03-10T03:17:38.182Z,17.30
2024-03-10T03:20:18.941Z,18.03
2024-03-10T03:22:50.452Z,17.73
2024-03-10T03:25:19.039Z,17.53
2024-03-10T03:27:51.698Z,15.43
2024-03-10T03:30:19.952Z,18.43
2024-03-10T03:32:47.524Z,18.10
2024-03-10T03:35:18.601Z,17.50
2024-03-10T03:37:49.009Z,17.87
2024-03-10T03:40:17.723Z,17.83
2024-03-10T03:42:44.834Z,16.57
2024-03-10T03:45:12.047Z,18.00
2024-03-10T03:47:39.382Z,17.97
2024-03-10T03:50:07.372Z,18.10
2024-03-10T03:52:34.542Z,16.73
2024-03-10T03:55:02.821Z,18.07
2024-03-10T03:57:30.140Z,17.90
2024-03-10T03:59:57.242Z,16.37
2024-03-10T04:02:28.202Z,17.53
2024-03-10T04:04:57.049Z,17.07
2024-03-10T04:07:24.681Z,18.53
2024-03-10T04:09:51.895Z,18.40
2024-03-10T04:12:19.518Z,16.73
2024-03-10T04:14:46.786Z,19.27
2024-03-10T04:17:14.391Z,20.47
2024-03-10T04:19:41.892Z,17.80
2024-03-10T04:22:11.747Z,16.20
2024-03-10T04:24:43.076Z,10.90
2024-03-10T04:27:10.455Z,19.20
2024-03-10T04:29:38.338Z,18.70
2024-03-10T04:32:09.317Z,20.80
2024-03-10T04:34:37.763Z,17.47
2024-03-10T04:37:09.956Z,18.17
2024-03-10T04:39:37.598Z,18.23
2024-03-10T04:42:04.718Z,18.10
2024-03-10T04:44:32.280Z,18.20
2024-03-10T04:46:59.385Z,17.03
2024-03-10T04:49:26.501Z,17.47
2024-03-10T04:51:53.684Z,15.00
2024-03-10T04:54:20.793Z,11.50
2024-03-10T04:56:48.826Z,19.60
2024-03-10T04:59:16.280Z,20.70
2024-03-10T05:01:43.631Z,18.63
2024-03-10T05:04:11.420Z,19.03
2024-03-10T05:06:38.943Z,19.67
2024-03-10T05:09:06.359Z,15.93
2024-03-10T05:11:33.770Z,17.83
2024-03-10T05:14:01.418Z,19.33
2024-03-10T05:16:28.859Z,19.00
2024-03-10T05:18:56.166Z,18.50
2024-03-10T05:21:27.489Z,19.10
2024-03-10T05:23:55.051Z,19.37
2024-03-10T05:26:22.366Z,18.90
2024-03-10T05:28:49.649Z,21.03
2024-03-10T05:31:31.470Z,18.77
2024-03-10T05:34:00.742Z,18.70
2024-03-10T05:36:28.422Z,19.20
2024-03-10T05:38:55.608Z,21.23
2024-03-10T05:41:23.104Z,19.30
2024-03-10T05:43:50.317Z,20.47
2024-03-10T05:46:17.792Z,20.27
2024-03-10T05:48:46.502Z,18.40
2024-03-10T05:51:16.483Z,19.47
2024-03-10T05:53:44.302Z,18.43
2024-03-10T05:56:12.279Z,15.67
2024-03-10T05:58:40.156Z,17.97
2024-03-10T06:01:08.701Z,18.80
2024-03-10T06:03:36.515Z,11.80
2024-03-10T06:06:04.140Z,17.13
2024-03-10T06:08:31.485Z,17.03
2024-03-10T06:10:59.180Z,13.63
2024-03-10T06:13:26.617Z,17.30
2024-03-10T06:15:53.979Z,18.20
2024-03-10T06:18:23.212Z,16.00
2024-03-10T06:21:09.075Z,16.20
2024-03-10T06:23:55.703Z,17.27
2024-03-10T06:26:23.636Z,17.33
2024-03-10T06:28:51.847Z,16.30
2024-03-10T06:31:20.089Z,17.33
2024-03-10T06:33:50.101Z,17.13
2024-03-10T06:36:17.074Z,14.87
2024-03-10T06:38:44.747Z,16.67
2024-03-10T06:41:12.700Z,18.00
2024-03-10T06:43:40.236Z,20.47
2024-03-10T06:46:10.875Z,17.80
2024-03-10T06:48:38.353Z,18.43
2024-03-10T06:51:07.312Z,17.83
2024-03-10T06:53:35.135Z,15.40
2024-03-10T06:56:02.763Z,13.80
2024-03-10T06:58:31.571Z,17.50
2024-03-10T07:00:59.777Z,16.67
2024-03-10T07:03:27.187Z,19.13
2024-03-10T07:05:56.167Z,15.60
2024-03-10T07:08:23.497Z,15.00
2024-03-10T07:10:50.891Z,15.93
2024-03-10T07:13:19.928Z,16.40
2024-03-10T07:15:50.334Z,16.13
2024-03-10T07:18:17.606Z,17.00
2024-03-10T07:20:46.620Z,15.63
2024-03-10T07:23:14.844Z,18.03
2024-03-10T07:25:42.201Z,15.50
2024-03-10T07:28:09.377Z,14.60
2024-03-10T07:30:36.522Z,16.23
2024-03-10T07:33:04.053Z,13.53
2024-03-10T07:35:31.542Z,15.10
2024-03-10T07:37:58.793Z,15.30
2024-03-10T07:40:26.123Z,15.23
2024-03-10T07:42:53.472Z,16.40
2024-03-10T07:45:20.814Z,14.07
2024-03-10T07:47:49.481Z,14.40
2024-03-10T07:50:18.358Z,14.23
2024-03-10T07:52:47.859Z,10.13
2024-03-10T07:55:15.515Z,13.20
2024-03-10T07:57:42.904Z,13.17
2024-03-10T08:00:18.185Z,14.80
2024-03-10T08:02:45.698Z,13.37
2024-03-10T08:05:13.699Z,14.90
2024-03-10T08:07:43.685Z,14.10
2024-03-10T08:10:15.004Z,14.70
2024-03-10T08:12:46.712Z,14.37
2024-03-10T08:15:15.231Z,12.40
2024-03-10T08:17:45.542Z,14.10
2024-03-10T08:20:16.447Z,11.33
2024-03-10T08:22:45.079Z,10.60
2024-03-10T08:25:12.793Z,14.13
2024-03-10T08:27:40.078Z,13.27
2024-03-10T08:30:11.272Z,12.90
2024-03-10T08:32:39.463Z,11.70
2024-03-10T08:35:14.554Z,15.00
2024-03-10T08:37:46.943Z,13.37
2024-03-10T08:40:16.722Z,13.90
2024-03-10T08:42:44.324Z,13.97
2024-03-10T08:45:14.842Z,13.97
2024-03-10T08:47:43.421Z,11.90
2024-03-10T08:50:12.442Z,13.87
2024-03-10T08:52:40.587Z,10.40
2024-03-10T08:55:09.233Z,14.13
2024-03-10T08:57:39.415Z,11.50
2024-03-10T09:00:07.466Z,14.50
2024-03-10T09:02:34.729Z,15.60
2024-03-10T09:05:02.460Z,16.20
2024-03-10T09:07:30.454Z,9.30
2024-03-10T09:09:59.197Z,14.80
2024-03-10T09:12:29.270Z,15.23
2024-03-10T09:14:57.442Z,13.70
2024-03-10T09:17:26.286Z,7.17
2024-03-10T09:19:54.074Z,10.30
2024-03-10T09:22:21.261Z,13.83
2024-03-10T09:24:50.085Z,13.37
2024-03-10T09:27:20.660Z,14.07
2024-03-10T09:29:48.986Z,13.27
2024-03-10T09:32:17.361Z,13.70
2024-03-10T09:34:44.769Z,15.60
2024-03-10T09:37:11.838Z,14.77
2024-03-10T09:39:39.026Z,14.23
2024-03-10T09:42:06.331Z,12.07
2024-03-10T09:44:34.653Z,12.87
2024-03-10T09:47:02.932Z,13.17
2024-03-10T09:49:30.372Z,14.07
2024-03-10T09:51:58.626Z,14.33
2024-03-10T09:54:27.002Z,13.40
2024-03-10T09:56:54.680Z,13.77
2024-03-10T09:59:38.171Z,12.97
2024-03-10T10:02:07.584Z,12.53
2024-03-10T10:04:47.418Z,12.40
2024-03-10T10:07:17.112Z,12.50
2024-03-10T10:10:00.184Z,12.10
2024-03-10T10:12:29.558Z,12.53
2024-03-10T10:14:56.884Z,13.07
2024-03-10T10:17:26.732Z,12.87
2024-03-10T10:19:57.356Z,12.97
2024-03-10T10:22:25.346Z,11.60
2024-03-10T10:25:08.625Z,12.80
2024-03-10T10:27:53.691Z,12.47
2024-03-10T10:30:29.660Z,10.87
2024-03-10T10:33:07.003Z,12.10
2024-03-10T10:35:44.001Z,13.70
2024-03-10T10:38:15.078Z,12.00
2024-03-10T10:40:50.084Z,10.77
2024-03-10T10:43:22.483Z,10.83
2024-03-10T10:45:50.039Z,11.40
2024-03-10T10:48:21.599Z,13.10
2024-03-10T10:50:49.438Z,10.60
2024-03-10T10:53:17.019Z,11.40
2024-03-10T10:55:46.614Z,12.53
2024-03-10T10:58:18.592Z,12.63
2024-03-10T11:00:55.679Z,12.37
2024-03-10T11:03:26.881Z,11.93
2024-03-10T11:06:03.344Z,13.20
2024-03-10T11:08:37.338Z,11.57
2024-03-10T11:11:05.348Z,13.33
2024-03-10T11:13:34.430Z,13.30
2024-03-10T11:16:15.275Z,12.03
2024-03-10T11:18:43.642Z,12.67
2024-03-10T11:21:23.770Z,13.03
2024-03-10T11:23:52.221Z,14.13
2024-03-10T11:26:28.799Z,12.90
2024-03-10T11:28:59.975Z,12.30
2024-03-10T11:31:27.739Z,13.67
2024-03-10T11:33:57.517Z,14.17
2024-03-10T11:36:26.342Z,14.50
2024-03-10T11:38:53.930Z,13.10
2024-03-10T11:41:23.739Z,14.33
2024-03-10T11:43:53.095Z,13.13
2024-03-10T11:46:26.379Z,12.67
2024-03-10T11:48:57.617Z,13.20
2024-03-10T11:51:35.052Z,14.23
2024-03-10T11:54:05.416Z,14.90
2024-03-10T11:56:35.752Z,15.07
2024-03-10T11:59:05.366Z,13.27
2024-03-10T12:01:33.692Z,14.93
2024-03-10T12:04:07.506Z,14.30
2024-03-10T12:06:35.185Z,16.30
2024-03-10T12:09:04.704Z,14.53
2024-03-10T12:11:34.711Z,14.93
2024-03-10T12:14:09.194Z,15.10
2024-03-10T12:16:50.021Z,14.93
2024-03-10T12:19:18.669Z,15.90
2024-03-10T12:21:46.939Z,14.27
2024-03-10T12:24:17.205Z,13.70
2024-03-10T12:26:45.164Z,13.43
2024-03-10T12:29:13.922Z,15.40
2024-03-10T12:31:41.188Z,14.97
2024-03-10T12:34:09.248Z,15.43
2024-03-10T12:36:36.909Z,15.20
2024-03-10T12:39:09.060Z,14.00
2024-03-10T12:41:36.365Z,14.00
2024-03-10T12:44:04.737Z,15.80
2024-03-10T12:46:32.066Z,15.03
2024-03-10T12:48:59.246Z,15.97
2024-03-10T12:51:26.423Z,15.53
2024-03-10T12:53:57.655Z,13.30
2024-03-10T12:56:25.057Z,14.73
2024-03-10T12:58:53.428Z,14.97
2024-03-10T13:01:20.770Z,16.13
2024-03-10T13:03:48.012Z,14.30
2024-03-10T13:06:16.411Z,15.13
2024-03-10T13:08:45.065Z,15.63
2024-03-10T13:11:15.120Z,13.63
2024-03-10T13:13:42.984Z,14.93
2024-03-10T13:16:10.504Z,14.10
2024-03-10T13:18:37.912Z,15.40
2024-03-10T13:21:05.335Z,14.57
2024-03-10T13:23:32.460Z,14.33
2024-03-10T13:25:59.757Z,13.40
2024-03-10T13:28:27.788Z,14.50
2024-03-10T13:30:54.811Z,14.20
2024-03-10T13:33:23.486Z,13.30
2024-03-10T13:36:03.712Z,14.03
2024-03-10T13:38:37.250Z,14.10
2024-03-10T13:41:04.696Z,14.50
2024-03-10T13:43:31.878Z,13.73
2024-03-10T13:46:02.949Z,12.70
2024-03-10T13:48:31.431Z,13.40
2024-03-10T13:50:58.611Z,13.40
2024-03-10T13:53:25.938Z,12.30
2024-03-10T13:55:53.101Z,12.40
2024-03-10T13:58:22.936Z,12.93
2024-03-10T14:00:50.181Z,11.60
2024-03-10T14:03:17.376Z,11.80
2024-03-10T14:05:44.645Z,12.07
2024-03-10T14:08:11.914Z,10.80
2024-03-10T14:10:39.065Z,10.93
2024-03-10T14:13:08.795Z,11.13
2024-03-10T14:15:39.403Z,12.10
2024-03-10T14:18:08.841Z,12.43
2024-03-10T14:20:36.144Z,11.50
2024-03-10T14:23:03.356Z,12.00
2024-03-10T14:25:32.779Z,9.50
2024-03-10T14:27:59.907Z,11.17
2024-03-10T14:30:28.995Z,11.37
2024-03-10T14:32:57.629Z,10.97
2024-03-10T14:35:26.897Z,10.90
2024-03-10T14:37:56.477Z,11.13
2024-03-10T14:40:24.582Z,11.83
2024-03-10T14:42:55.296Z,11.80
2024-03-10T14:45:24.013Z,11.47
2024-03-10T14:47:52.474Z,12.17
2024-03-10T14:50:31.105Z,13.90
2024-03-10T14:52:59.163Z,11.33
2024-03-10T14:55:27.635Z,12.03
2024-03-10T14:57:58.368Z,11.70
2024-03-10T15:00:36.360Z,12.10
2024-03-10T15:03:07.256Z,11.87
2024-03-10T15:05:41.007Z,12.20
2024-03-10T15:08:12.739Z,13.60
2024-03-10T15:10:43.038Z,12.07
2024-03-10T15:13:10.580Z,14.67
2024-03-10T15:15:38.327Z,13.37
2024-03-10T15:18:06.987Z,12.40
2024-03-10T15:20:40.874Z,13.30
2024-03-10T15:23:08.446Z,14.17
2024-03-10T15:25:36.158Z,12.63
2024-03-10T15:28:04.689Z,15.63
2024-03-10T15:30:32.086Z,13.23
2024-03-10T15:32:59.828Z,12.67
2024-03-10T15:35:28.067Z,12.60
2024-03-10T15:37:56.841Z,13.07
2024-03-10T15:40:24.493Z,12.10
2024-03-10T15:42:51.530Z,12.50
2024-03-10T15:45:21.225Z,12.17
2024-03-10T15:47:51.791Z,12.30
2024-03-10T15:50:22.049Z,10.20
2024-03-10T15:52:50.134Z,11.03
2024-03-10T15:55:18.449Z,12.80
2024-03-10T15:57:49.007Z,12.10
2024-03-10T16:00:16.786Z,11.30
2024-03-10T16:02:46.572Z,12.97
2024-03-10T16:05:37.643Z,12.17
2024-03-10T16:08:07.545Z,12.97
2024-03-10T16:10:38.951Z,12.83
2024-03-10T16:13:09.057Z,12.40
2024-03-10T16:15:38.435Z,11.90
2024-03-10T16:18:08.521Z,12.57
2024-03-10T16:20:45.492Z,11.50
2024-03-10T16:23:14.890Z,10.97
2024-03-10T16:25:42.627Z,11.60
2024-03-10T16:28:10.306Z,12.33
2024-03-10T16:30:37.648Z,12.17
2024-03-10T16:33:06.224Z,12.93
2024-03-10T16:35:33.744Z,12.17
2024-03-10T16:38:01.114Z,12.10
2024-03-10T16:40:28.968Z,11.60
2024-03-10T16:42:56.445Z,12.27
2024-03-10T16:45:23.696Z,12.40
2024-03-10T16:47:51.633Z,12.37
2024-03-10T16:50:24.578Z,12.60
2024-03-10T16:52:53.479Z,13.47
2024-03-10T16:55:22.029Z,12.57
2024-03-10T16:57:49.120Z,12.37
2024-03-10T17:00:16.531Z,12.53
2024-03-10T17:02:45.928Z,12.90
2024-03-10T17:05:17.091Z,13.10
2024-03-10T17:07:44.519Z,13.30
2024-03-10T17:10:14.446Z,12.80
2024-03-10T17:12:42.330Z,13.53
2024-03-10T17:15:14.447Z,13.50
2024-03-10T17:17:44.084Z,12.70
2024-03-10T17:20:13.560Z,13.40
2024-03-10T17:22:41.994Z,13.60
2024-03-10T17:25:10.326Z,12.83
2024-03-10T17:27:44.501Z,17.63
2024-03-10T17:30:12.040Z,14.27
2024-03-10T17:32:39.335Z,15.83
2024-03-10T17:35:08.553Z,14.50
2024-03-10T17:37:36.029Z,13.33
2024-03-10T17:40:05.067Z,14.17
2024-03-10T17:42:33.407Z,14.47
2024-03-10T17:45:01.783Z,14.43
2024-03-10T17:47:29.779Z,15.40
2024-03-10T17:49:56.978Z,14.93
2024-03-10T17:52:24.242Z,14.50
2024-03-10T17:54:51.776Z,14.63
2024-03-10T17:57:18.957Z,13.93
2024-03-10T17:59:46.375Z,14.60
2024-03-10T18:02:13.626Z,13.40
2024-03-10T18:04:40.805Z,15.43
2024-03-10T18:07:07.754Z,15.00
2024-03-10T18:09:34.963Z,14.00
2024-03-10T18:12:07.720Z,13.50
2024-03-10T18:14:37.217Z,13.17
2024-03-10T18:17:06.864Z,14.10
2024-03-10T18:19:34.127Z,14.00
2024-03-10T18:22:02.518Z,13.07
2024-03-10T18:24:30.534Z,13.53
2024-03-10T18:26:57.727Z,13.63
2024-03-10T18:29:25.001Z,13.00
2024-03-10T18:31:52.229Z,13.17
2024-03-10T18:34:20.118Z,14.33
2024-03-10T18:36:48.929Z,14.00
2024-03-10T18:39:19.248Z,14.53
2024-03-10T18:41:47.220Z,14.77
2024-03-10T18:44:14.413Z,14.00
2024-03-10T18:46:41.667Z,14.30
2024-03-10T18:49:10.823Z,15.07
2024-03-10T18:51:38.349Z,15.30
2024-03-10T18:54:05.662Z,13.30
2024-03-10T18:56:34.518Z,13.13
2024-03-10T18:59:01.866Z,12.60
2024-03-10T19:01:29.265Z,14.23
2024-03-10T19:03:56.664Z,14.23
2024-03-10T19:06:24.228Z,15.50
2024-03-10T19:08:51.902Z,14.70
2024-03-10T19:11:20.517Z,14.40
2024-03-10T19:13:47.790Z,16.27
2024-03-10T19:16:15.132Z,22.67
2024-03-10T19:18:42.198Z,22.33
2024-03-10T19:21:09.335Z,16.83
2024-03-10T19:23:37.975Z,16.13
2024-03-10T19:26:06.882Z,15.23
2024-03-10T19:28:34.694Z,19.00
2024-03-10T19:31:06.162Z,21.07
2024-03-10T19:33:34.524Z,20.80
2024-03-10T19:36:03.691Z,22.20
2024-03-10T19:38:32.140Z,21.80
2024-03-10T19:40:59.768Z,25.27
2024-03-10T19:43:27.212Z,23.97
2024-03-10T19:45:54.992Z,30.63
2024-03-10T19:48:25.491Z,24.67
2024-03-10T19:50:53.255Z,21.10
2024-03-10T19:53:21.216Z,21.37
2024-03-10T19:55:51.662Z,19.40
2024-03-10T19:58:19.152Z,19.37
2024-03-10T20:00:48.649Z,18.20
2024-03-10T20:03:16.968Z,16.10
2024-03-10T20:05:44.452Z,22.00
2024-03-10T20:08:15.732Z,16.50
2024-03-10T20:10:43.305Z,15.60
2024-03-10T20:13:13.201Z,16.37
2024-03-10T20:15:40.336Z,14.70
2024-03-10T20:18:07.966Z,14.90
2024-03-10T20:20:35.232Z,15.20
2024-03-10T20:23:02.644Z,14.60
2024-03-10T20:25:32.093Z,16.03
2024-03-10T20:27:59.936Z,16.10
2024-03-10T20:30:31.715Z,15.47
2024-03-10T20:32:59.742Z,14.97
2024-03-10T20:35:27.896Z,15.90
2024-03-10T20:37:56.218Z,16.73
2024-03-10T20:40:23.877Z,16.80
2024-03-10T20:42:51.090Z,16.53
2024-03-10T20:45:18.367Z,19.00
2024-03-10T20:47:47.719Z,16.90
2024-03-10T20:50:16.358Z,17.47
2024-03-10T20:52:45.318Z,18.10
2024-03-10T20:55:12.596Z,16.27
2024-03-10T20:57:42.176Z,16.40
2024-03-10T21:00:15.962Z,17.83
2024-03-10T21:02:43.894Z,17.60
2024-03-10T21:05:11.308Z,17.60
2024-03-10T21:07:38.730Z,18.30
2024-03-10T21:10:08.161Z,17.80
2024-03-10T21:12:35.310Z,18.27
2024-03-10T21:15:03.228Z,17.20
2024-03-10T21:17:31.552Z,17.77
2024-03-10T21:20:00.467Z,16.73
2024-03-10T21:22:27.683Z,18.07
2024-03-10T21:24:54.747Z,17.70
2024-03-10T21:27:21.973Z,18.20
2024-03-10T21:29:49.099Z,16.90
2024-03-10T21:32:16.322Z,17.87
2024-03-10T21:34:43.563Z,16.87
2024-03-10T21:37:12.493Z,17.90
2024-03-10T21:39:39.722Z,17.70
2024-03-10T21:42:07.959Z,16.07
2024-03-10T21:44:35.659Z,17.10
2024-03-10T21:47:02.883Z,17.93
2024-03-10T21:49:29.873Z,18.00
2024-03-10T21:51:57.020Z,18.40
2024-03-10T21:54:24.131Z,18.57
2024-03-10T21:56:51.600Z,18.40
2024-03-10T21:59:18.788Z,18.03
2024-03-10T22:01:45.927Z,17.63
2024-03-10T22:04:13.169Z,16.60
2024-03-10T22:06:41.332Z,16.30
2024-03-10T22:09:11.890Z,17.07
2024-03-10T22:11:39.330Z,15.73
2024-03-10T22:14:06.552Z,15.47
2024-03-10T22:16:33.719Z,16.60
2024-03-10T22:19:00.771Z,16.53
2024-03-10T22:21:28.173Z,15.90
2024-03-10T22:23:55.303Z,15.43
2024-03-10T22:26:22.455Z,16.03
2024-03-10T22:28:49.850Z,15.33
2024-03-10T22:31:18.458Z,15.43
2024-03-10T22:33:45.578Z,17.37
2024-03-10T22:36:12.719Z,14.47
2024-03-10T22:38:40.367Z,14.50
2024-03-10T22:41:07.440Z,17.57
2024-03-10T22:43:35.208Z,14.60
2024-03-10T22:46:03.084Z,15.67
2024-03-10T22:48:30.295Z,15.20
2024-03-10T22:50:57.453Z,14.83
2024-03-10T22:53:24.823Z,14.93
2024-03-10T22:55:52.022Z,15.13
2024-03-10T22:58:19.650Z,14.20
2024-03-10T23:00:47.096Z,15.83
2024-03-10T23:03:16.523Z,14.23
2024-03-10T23:05:45.087Z,18.10
2024-03-10T23:08:14.798Z,17.30
2024-03-10T23:10:48.293Z,16.70
2024-03-10T23:13:17.349Z,18.90
2024-03-10T23:15:49.183Z,16.87
2024-03-10T23:18:26.659Z,19.70
2024-03-10T23:20:57.641Z,21.13
2024-03-10T23:23:25.212Z,17.60
2024-03-10T23:25:56.263Z,15.90
2024-03-10T23:28:24.092Z,21.40
2024-03-10T23:30:51.219Z,19.80
2024-03-10T23:33:18.204Z,17.40
2024-03-10T23:35:45.576Z,16.30
2024-03-10T23:38:13.154Z,21.73
2024-03-10T23:40:40.379Z,17.10
2024-03-10T23:43:07.778Z,16.80
2024-03-10T23:45:35.279Z,17.77
2024-03-10T23:48:03.003Z,20.23
2024-03-10T23:50:30.627Z,16.10
2024-03-10T23:53:01.313Z,20.50
2024-03-10T23:55:40.639Z,18.30
2024-03-10T23:58:08.732Z,19.90
